sensor_id;sensor_type;location;lat;lon;timestamp;P1;durP1;ratioP1;P2;durP2;ratioP2
52866;SDS011;38739;53.324;6.862;2022-07-22T00:01:56;16.80;;;4.60;;
52866;SDS011;38739;53.324;6.862;2022-07-22T00:04:22;17.23;;;4.63;;
52866;SDS011;38739;53.324;6.862;2022-07-22T00:06:48;14.88;;;4.60;;
52866;SDS011;38739;53.324;6.862;2022-07-22T00:09:13;17.35;;;4.97;;
52866;SDS011;38739;53.324;6.862;2022-07-22T00:11:39;19.95;;;5.10;;
52866;SDS011;38739;53.324;6.862;2022-07-22T00:14:05;17.38;;;5.30;;
52866;SDS011;38739;53.324;6.862;2022-07-22T00:16:31;15.82;;;4.85;;
52866;SDS011;38739;53.324;6.862;2022-07-22T00:18:57;15.98;;;5.00;;
52866;SDS011;38739;53.324;6.862;2022-07-22T00:21:23;19.17;;;4.85;;
52866;SDS011;38739;53.324;6.862;2022-07-22T00:23:49;16.33;;;4.85;;
52866;SDS011;38739;53.324;6.862;2022-07-22T00:26:15;20.13;;;5.28;;
52866;SDS011;38739;53.324;6.862;2022-07-22T00:28:41;19.95;;;4.15;;
52866;SDS011;38739;53.324;6.862;2022-07-22T00:31:06;17.92;;;4.60;;
52866;SDS011;38739;53.324;6.862;2022-07-22T00:33:32;16.77;;;4.25;;
52866;SDS011;38739;53.324;6.862;2022-07-22T00:35:58;18.75;;;4.10;;
52866;SDS011;38739;53.324;6.862;2022-07-22T00:38:27;17.88;;;3.83;;
52866;SDS011;38739;53.324;6.862;2022-07-22T00:40:52;20.85;;;4.00;;
52866;SDS011;38739;53.324;6.862;2022-07-22T00:43:18;18.27;;;3.90;;
52866;SDS011;38739;53.324;6.862;2022-07-22T00:45:44;12.10;;;3.65;;
52866;SDS011;38739;53.324;6.862;2022-07-22T00:48:09;11.45;;;3.30;;
52866;SDS011;38739;53.324;6.862;2022-07-22T00:50:35;11.48;;;3.35;;
52866;SDS011;38739;53.324;6.862;2022-07-22T00:53:01;11.02;;;3.08;;
52866;SDS011;38739;53.324;6.862;2022-07-22T00:55:28;17.58;;;3.88;;
52866;SDS011;38739;53.324;6.862;2022-07-22T00:57:54;10.15;;;3.25;;
52866;SDS011;38739;53.324;6.862;2022-07-22T01:00:20;14.30;;;3.75;;
52866;SDS011;38739;53.324;6.862;2022-07-22T01:02:47;16.40;;;3.75;;
52866;SDS011;38739;53.324;6.862;2022-07-22T01:05:13;11.70;;;3.08;;
52866;SDS011;38739;53.324;6.862;2022-07-22T01:07:39;10.32;;;3.20;;
52866;SDS011;38739;53.324;6.862;2022-07-22T01:10:05;10.18;;;2.97;;
52866;SDS011;38739;53.324;6.862;2022-07-22T01:12:32;9.32;;;3.20;;
52866;SDS011;38739;53.324;6.862;2022-07-22T01:14:58;8.73;;;3.03;;
52866;SDS011;38739;53.324;6.862;2022-07-22T01:17:23;10.77;;;3.45;;
52866;SDS011;38739;53.324;6.862;2022-07-22T01:19:50;10.90;;;3.38;;
52866;SDS011;38739;53.324;6.862;2022-07-22T01:22:15;11.13;;;3.33;;
52866;SDS011;38739;53.324;6.862;2022-07-22T01:24:41;16.40;;;3.67;;
52866;SDS011;38739;53.324;6.862;2022-07-22T01:27:07;11.32;;;3.13;;
52866;SDS011;38739;53.324;6.862;2022-07-22T01:29:33;10.45;;;2.83;;
52866;SDS011;38739;53.324;6.862;2022-07-22T01:31:59;12.95;;;2.85;;
52866;SDS011;38739;53.324;6.862;2022-07-22T01:34:24;9.70;;;2.85;;
52866;SDS011;38739;53.324;6.862;2022-07-22T01:36:50;14.50;;;3.05;;
52866;SDS011;38739;53.324;6.862;2022-07-22T01:39:16;12.60;;;2.92;;
52866;SDS011;38739;53.324;6.862;2022-07-22T01:41:42;8.65;;;2.90;;
52866;SDS011;38739;53.324;6.862;2022-07-22T01:44:08;12.40;;;3.50;;
52866;SDS011;38739;53.324;6.862;2022-07-22T01:46:34;8.82;;;2.47;;
52866;SDS011;38739;53.324;6.862;2022-07-22T01:49:00;10.88;;;2.63;;
52866;SDS011;38739;53.324;6.862;2022-07-22T01:51:26;8.65;;;2.72;;
52866;SDS011;38739;53.324;6.862;2022-07-22T01:53:51;12.98;;;3.22;;
52866;SDS011;38739;53.324;6.862;2022-07-22T01:56:18;11.10;;;3.25;;
52866;SDS011;38739;53.324;6.862;2022-07-22T01:58:43;12.73;;;3.33;;
52866;SDS011;38739;53.324;6.862;2022-07-22T02:01:09;12.45;;;3.05;;
52866;SDS011;38739;53.324;6.862;2022-07-22T02:03:35;14.65;;;3.28;;
52866;SDS011;38739;53.324;6.862;2022-07-22T02:06:01;9.05;;;2.80;;
52866;SDS011;38739;53.324;6.862;2022-07-22T02:08:28;14.13;;;3.40;;
52866;SDS011;38739;53.324;6.862;2022-07-22T02:10:53;11.38;;;3.17;;
52866;SDS011;38739;53.324;6.862;2022-07-22T02:13:19;12.40;;;2.72;;
52866;SDS011;38739;53.324;6.862;2022-07-22T02:15:45;14.35;;;3.03;;
52866;SDS011;38739;53.324;6.862;2022-07-22T02:18:15;11.07;;;2.72;;
52866;SDS011;38739;53.324;6.862;2022-07-22T02:20:43;13.40;;;2.78;;
52866;SDS011;38739;53.324;6.862;2022-07-22T02:23:09;11.07;;;2.97;;
52866;SDS011;38739;53.324;6.862;2022-07-22T02:25:39;10.88;;;2.92;;
52866;SDS011;38739;53.324;6.862;2022-07-22T02:28:05;11.43;;;2.70;;
52866;SDS011;38739;53.324;6.862;2022-07-22T02:30:32;13.27;;;2.70;;
52866;SDS011;38739;53.324;6.862;2022-07-22T02:32:58;12.75;;;2.28;;
52866;SDS011;38739;53.324;6.862;2022-07-22T02:35:24;8.23;;;2.65;;
52866;SDS011;38739;53.324;6.862;2022-07-22T02:37:50;9.85;;;2.50;;
52866;SDS011;38739;53.324;6.862;2022-07-22T02:40:16;10.38;;;2.15;;
52866;SDS011;38739;53.324;6.862;2022-07-22T02:42:42;8.90;;;2.63;;
52866;SDS011;38739;53.324;6.862;2022-07-22T02:45:08;8.93;;;2.30;;
52866;SDS011;38739;53.324;6.862;2022-07-22T02:47:34;8.98;;;2.38;;
52866;SDS011;38739;53.324;6.862;2022-07-22T02:50:09;8.48;;;2.25;;
52866;SDS011;38739;53.324;6.862;2022-07-22T02:52:35;11.30;;;2.80;;
52866;SDS011;38739;53.324;6.862;2022-07-22T02:55:01;10.70;;;2.80;;
52866;SDS011;38739;53.324;6.862;2022-07-22T02:57:26;7.80;;;2.28;;
52866;SDS011;38739;53.324;6.862;2022-07-22T02:59:52;7.25;;;2.50;;
52866;SDS011;38739;53.324;6.862;2022-07-22T03:02:18;8.70;;;2.60;;
52866;SDS011;38739;53.324;6.862;2022-07-22T03:04:43;9.93;;;2.90;;
52866;SDS011;38739;53.324;6.862;2022-07-22T03:07:09;9.50;;;2.92;;
52866;SDS011;38739;53.324;6.862;2022-07-22T03:09:35;7.85;;;2.63;;
52866;SDS011;38739;53.324;6.862;2022-07-22T03:12:00;7.78;;;2.30;;
52866;SDS011;38739;53.324;6.862;2022-07-22T03:14:26;7.43;;;2.38;;
52866;SDS011;38739;53.324;6.862;2022-07-22T03:16:52;10.40;;;2.78;;
52866;SDS011;38739;53.324;6.862;2022-07-22T03:19:17;9.23;;;2.50;;
52866;SDS011;38739;53.324;6.862;2022-07-22T03:21:43;8.70;;;2.50;;
52866;SDS011;38739;53.324;6.862;2022-07-22T03:24:09;7.15;;;2.50;;
52866;SDS011;38739;53.324;6.862;2022-07-22T03:26:34;8.57;;;2.33;;
52866;SDS011;38739;53.324;6.862;2022-07-22T03:29:00;8.77;;;2.97;;
52866;SDS011;38739;53.324;6.862;2022-07-22T03:31:26;9.20;;;2.30;;
52866;SDS011;38739;53.324;6.862;2022-07-22T03:33:52;7.68;;;2.20;;
52866;SDS011;38739;53.324;6.862;2022-07-22T03:36:18;8.05;;;2.47;;
52866;SDS011;38739;53.324;6.862;2022-07-22T03:38:43;7.43;;;2.30;;
52866;SDS011;38739;53.324;6.862;2022-07-22T03:41:09;8.18;;;2.50;;
52866;SDS011;38739;53.324;6.862;2022-07-22T03:43:34;12.05;;;3.00;;
52866;SDS011;38739;53.324;6.862;2022-07-22T03:46:00;6.00;;;2.10;;
52866;SDS011;38739;53.324;6.862;2022-07-22T03:48:26;10.68;;;2.45;;
52866;SDS011;38739;53.324;6.862;2022-07-22T03:50:52;6.85;;;2.33;;
52866;SDS011;38739;53.324;6.862;2022-07-22T03:53:17;7.95;;;2.30;;
52866;SDS011;38739;53.324;6.862;2022-07-22T03:55:43;9.38;;;2.53;;
52866;SDS011;38739;53.324;6.862;2022-07-22T03:58:09;6.65;;;2.30;;
52866;SDS011;38739;53.324;6.862;2022-07-22T04:00:35;8.88;;;2.42;;
52866;SDS011;38739;53.324;6.862;2022-07-22T04:03:00;9.02;;;2.55;;
52866;SDS011;38739;53.324;6.862;2022-07-22T04:05:26;7.05;;;2.53;;
52866;SDS011;38739;53.324;6.862;2022-07-22T04:07:52;7.72;;;2.42;;
52866;SDS011;38739;53.324;6.862;2022-07-22T04:10:17;9.02;;;2.25;;
52866;SDS011;38739;53.324;6.862;2022-07-22T04:12:43;7.88;;;2.38;;
52866;SDS011;38739;53.324;6.862;2022-07-22T04:15:09;10.30;;;3.00;;
52866;SDS011;38739;53.324;6.862;2022-07-22T04:17:35;7.78;;;2.20;;
52866;SDS011;38739;53.324;6.862;2022-07-22T04:20:01;6.57;;;2.40;;
52866;SDS011;38739;53.324;6.862;2022-07-22T04:22:27;9.30;;;2.42;;
52866;SDS011;38739;53.324;6.862;2022-07-22T04:24:53;9.70;;;2.38;;
52866;SDS011;38739;53.324;6.862;2022-07-22T04:27:19;6.65;;;2.20;;
52866;SDS011;38739;53.324;6.862;2022-07-22T04:29:44;9.50;;;2.50;;
52866;SDS011;38739;53.324;6.862;2022-07-22T04:32:10;7.18;;;2.00;;
52866;SDS011;38739;53.324;6.862;2022-07-22T04:34:36;9.23;;;2.20;;
52866;SDS011;38739;53.324;6.862;2022-07-22T04:37:01;6.85;;;2.22;;
52866;SDS011;38739;53.324;6.862;2022-07-22T04:39:27;7.20;;;2.25;;
52866;SDS011;38739;53.324;6.862;2022-07-22T04:41:53;8.60;;;2.33;;
52866;SDS011;38739;53.324;6.862;2022-07-22T04:44:19;6.28;;;1.83;;
52866;SDS011;38739;53.324;6.862;2022-07-22T04:46:44;5.68;;;2.03;;
52866;SDS011;38739;53.324;6.862;2022-07-22T04:49:10;9.25;;;2.10;;
52866;SDS011;38739;53.324;6.862;2022-07-22T04:51:36;8.85;;;2.72;;
52866;SDS011;38739;53.324;6.862;2022-07-22T04:54:01;6.60;;;1.80;;
52866;SDS011;38739;53.324;6.862;2022-07-22T04:56:27;10.13;;;2.45;;
52866;SDS011;38739;53.324;6.862;2022-07-22T04:58:53;7.05;;;2.25;;
52866;SDS011;38739;53.324;6.862;2022-07-22T05:01:18;4.60;;;1.63;;
52866;SDS011;38739;53.324;6.862;2022-07-22T05:03:44;6.15;;;2.10;;
52866;SDS011;38739;53.324;6.862;2022-07-22T05:06:10;5.95;;;2.08;;
52866;SDS011;38739;53.324;6.862;2022-07-22T05:08:36;5.25;;;1.98;;
52866;SDS011;38739;53.324;6.862;2022-07-22T05:11:02;7.70;;;1.90;;
52866;SDS011;38739;53.324;6.862;2022-07-22T05:13:27;6.40;;;1.80;;
52866;SDS011;38739;53.324;6.862;2022-07-22T05:15:55;6.78;;;2.25;;
52866;SDS011;38739;53.324;6.862;2022-07-22T05:18:21;7.82;;;2.10;;
52866;SDS011;38739;53.324;6.862;2022-07-22T05:20:48;9.32;;;2.42;;
52866;SDS011;38739;53.324;6.862;2022-07-22T05:23:13;7.82;;;2.10;;
52866;SDS011;38739;53.324;6.862;2022-07-22T05:25:39;7.70;;;2.10;;
52866;SDS011;38739;53.324;6.862;2022-07-22T05:28:05;11.82;;;2.33;;
52866;SDS011;38739;53.324;6.862;2022-07-22T05:30:30;6.43;;;1.88;;
52866;SDS011;38739;53.324;6.862;2022-07-22T05:32:56;6.28;;;2.05;;
52866;SDS011;38739;53.324;6.862;2022-07-22T05:35:22;6.65;;;1.83;;
52866;SDS011;38739;53.324;6.862;2022-07-22T05:37:48;7.82;;;2.20;;
52866;SDS011;38739;53.324;6.862;2022-07-22T05:40:14;9.98;;;2.15;;
52866;SDS011;38739;53.324;6.862;2022-07-22T05:42:39;6.38;;;2.03;;
52866;SDS011;38739;53.324;6.862;2022-07-22T05:45:05;8.35;;;2.10;;
52866;SDS011;38739;53.324;6.862;2022-07-22T05:47:31;7.07;;;2.20;;
52866;SDS011;38739;53.324;6.862;2022-07-22T05:49:57;10.80;;;2.17;;
52866;SDS011;38739;53.324;6.862;2022-07-22T05:52:22;7.85;;;2.10;;
52866;SDS011;38739;53.324;6.862;2022-07-22T05:54:48;8.05;;;2.13;;
52866;SDS011;38739;53.324;6.862;2022-07-22T05:57:14;6.20;;;1.90;;
52866;SDS011;38739;53.324;6.862;2022-07-22T05:59:39;9.75;;;2.20;;
52866;SDS011;38739;53.324;6.862;2022-07-22T06:02:06;12.02;;;2.15;;
52866;SDS011;38739;53.324;6.862;2022-07-22T06:04:33;5.97;;;1.90;;
52866;SDS011;38739;53.324;6.862;2022-07-22T06:06:59;6.88;;;2.10;;
52866;SDS011;38739;53.324;6.862;2022-07-22T06:09:24;8.23;;;1.58;;
52866;SDS011;38739;53.324;6.862;2022-07-22T06:11:50;4.75;;;1.85;;
52866;SDS011;38739;53.324;6.862;2022-07-22T06:14:16;7.50;;;1.67;;
52866;SDS011;38739;53.324;6.862;2022-07-22T06:16:42;5.28;;;1.40;;
52866;SDS011;38739;53.324;6.862;2022-07-22T06:19:07;5.75;;;1.70;;
52866;SDS011;38739;53.324;6.862;2022-07-22T06:21:33;5.65;;;1.73;;
52866;SDS011;38739;53.324;6.862;2022-07-22T06:23:59;7.90;;;1.90;;
52866;SDS011;38739;53.324;6.862;2022-07-22T06:26:24;6.30;;;1.92;;
52866;SDS011;38739;53.324;6.862;2022-07-22T06:28:50;5.38;;;1.75;;
52866;SDS011;38739;53.324;6.862;2022-07-22T06:31:16;3.55;;;1.60;;
52866;SDS011;38739;53.324;6.862;2022-07-22T06:33:42;6.22;;;1.60;;
52866;SDS011;38739;53.324;6.862;2022-07-22T06:36:07;6.88;;;1.70;;
52866;SDS011;38739;53.324;6.862;2022-07-22T06:38:33;8.10;;;1.73;;
52866;SDS011;38739;53.324;6.862;2022-07-22T06:40:59;8.48;;;1.95;;
52866;SDS011;38739;53.324;6.862;2022-07-22T06:43:26;12.95;;;1.83;;
52866;SDS011;38739;53.324;6.862;2022-07-22T06:45:52;5.90;;;1.42;;
52866;SDS011;38739;53.324;6.862;2022-07-22T06:48:18;28.85;;;2.88;;
52866;SDS011;38739;53.324;6.862;2022-07-22T06:50:44;9.35;;;1.40;;
52866;SDS011;38739;53.324;6.862;2022-07-22T06:53:10;8.88;;;1.25;;
52866;SDS011;38739;53.324;6.862;2022-07-22T06:55:35;7.78;;;1.38;;
52866;SDS011;38739;53.324;6.862;2022-07-22T06:58:01;6.15;;;1.40;;
52866;SDS011;38739;53.324;6.862;2022-07-22T07:00:27;6.50;;;1.40;;
52866;SDS011;38739;53.324;6.862;2022-07-22T07:02:52;8.20;;;1.42;;
52866;SDS011;38739;53.324;6.862;2022-07-22T07:05:18;3.88;;;1.08;;
52866;SDS011;38739;53.324;6.862;2022-07-22T07:07:44;3.92;;;1.10;;
52866;SDS011;38739;53.324;6.862;2022-07-22T07:10:09;3.72;;;1.40;;
52866;SDS011;38739;53.324;6.862;2022-07-22T07:12:37;4.60;;;1.35;;
52866;SDS011;38739;53.324;6.862;2022-07-22T07:15:04;6.60;;;1.73;;
52866;SDS011;38739;53.324;6.862;2022-07-22T07:17:30;6.80;;;1.35;;
52866;SDS011;38739;53.324;6.862;2022-07-22T07:19:56;5.72;;;1.20;;
52866;SDS011;38739;53.324;6.862;2022-07-22T07:22:21;5.75;;;1.63;;
52866;SDS011;38739;53.324;6.862;2022-07-22T07:24:47;7.35;;;1.20;;
52866;SDS011;38739;53.324;6.862;2022-07-22T07:27:13;5.40;;;1.23;;
52866;SDS011;38739;53.324;6.862;2022-07-22T07:29:39;4.22;;;1.00;;
52866;SDS011;38739;53.324;6.862;2022-07-22T07:32:04;5.45;;;1.20;;
52866;SDS011;38739;53.324;6.862;2022-07-22T07:34:30;5.50;;;1.30;;
52866;SDS011;38739;53.324;6.862;2022-07-22T07:36:56;7.95;;;1.35;;
52866;SDS011;38739;53.324;6.862;2022-07-22T07:39:23;5.18;;;1.52;;
52866;SDS011;38739;53.324;6.862;2022-07-22T07:41:48;3.10;;;1.13;;
52866;SDS011;38739;53.324;6.862;2022-07-22T07:44:15;9.43;;;1.40;;
52866;SDS011;38739;53.324;6.862;2022-07-22T07:46:41;8.05;;;1.63;;
52866;SDS011;38739;53.324;6.862;2022-07-22T07:49:07;5.45;;;1.38;;
52866;SDS011;38739;53.324;6.862;2022-07-22T07:51:33;5.70;;;1.38;;
52866;SDS011;38739;53.324;6.862;2022-07-22T07:53:58;6.45;;;1.33;;
52866;SDS011;38739;53.324;6.862;2022-07-22T07:56:24;6.22;;;1.70;;
52866;SDS011;38739;53.324;6.862;2022-07-22T07:58:50;5.38;;;1.67;;
52866;SDS011;38739;53.324;6.862;2022-07-22T08:01:15;5.32;;;1.30;;
52866;SDS011;38739;53.324;6.862;2022-07-22T08:03:41;8.95;;;1.33;;
52866;SDS011;38739;53.324;6.862;2022-07-22T08:06:07;4.20;;;1.20;;
52866;SDS011;38739;53.324;6.862;2022-07-22T08:08:32;7.35;;;1.20;;
52866;SDS011;38739;53.324;6.862;2022-07-22T08:10:58;6.70;;;1.20;;
52866;SDS011;38739;53.324;6.862;2022-07-22T08:13:24;8.95;;;1.13;;
52866;SDS011;38739;53.324;6.862;2022-07-22T08:15:50;5.55;;;1.30;;
52866;SDS011;38739;53.324;6.862;2022-07-22T08:18:16;6.82;;;1.20;;
52866;SDS011;38739;53.324;6.862;2022-07-22T08:20:41;3.70;;;1.10;;
52866;SDS011;38739;53.324;6.862;2022-07-22T08:23:07;3.90;;;1.13;;
52866;SDS011;38739;53.324;6.862;2022-07-22T08:25:33;12.60;;;1.30;;
52866;SDS011;38739;53.324;6.862;2022-07-22T08:27:59;18.52;;;1.58;;
52866;SDS011;38739;53.324;6.862;2022-07-22T08:30:25;12.52;;;1.30;;
52866;SDS011;38739;53.324;6.862;2022-07-22T08:32:52;11.05;;;1.40;;
52866;SDS011;38739;53.324;6.862;2022-07-22T08:35:18;4.53;;;1.13;;
52866;SDS011;38739;53.324;6.862;2022-07-22T08:37:44;6.57;;;1.00;;
52866;SDS011;38739;53.324;6.862;2022-07-22T08:40:11;8.40;;;1.13;;
52866;SDS011;38739;53.324;6.862;2022-07-22T08:42:41;6.30;;;1.20;;
52866;SDS011;38739;53.324;6.862;2022-07-22T08:45:08;6.82;;;1.13;;
52866;SDS011;38739;53.324;6.862;2022-07-22T08:47:37;6.88;;;1.35;;
52866;SDS011;38739;53.324;6.862;2022-07-22T08:50:03;7.85;;;1.23;;
52866;SDS011;38739;53.324;6.862;2022-07-22T08:52:29;6.43;;;1.35;;
52866;SDS011;38739;53.324;6.862;2022-07-22T08:54:55;4.10;;;1.00;;
52866;SDS011;38739;53.324;6.862;2022-07-22T08:57:21;5.28;;;1.13;;
52866;SDS011;38739;53.324;6.862;2022-07-22T08:59:50;6.10;;;1.23;;
52866;SDS011;38739;53.324;6.862;2022-07-22T09:02:21;3.70;;;1.30;;
52866;SDS011;38739;53.324;6.862;2022-07-22T09:04:52;5.20;;;1.23;;
52866;SDS011;38739;53.324;6.862;2022-07-22T09:09:51;7.72;;;1.10;;
52866;SDS011;38739;53.324;6.862;2022-07-22T09:12:17;6.15;;;1.20;;
52866;SDS011;38739;53.324;6.862;2022-07-22T09:14:46;2.67;;;1.00;;
52866;SDS011;38739;53.324;6.862;2022-07-22T09:20:25;4.50;;;1.27;;
52866;SDS011;38739;53.324;6.862;2022-07-22T09:22:51;3.70;;;1.00;;
52866;SDS011;38739;53.324;6.862;2022-07-22T09:30:32;5.07;;;1.02;;
52866;SDS011;38739;53.324;6.862;2022-07-22T09:32:59;5.70;;;1.08;;
52866;SDS011;38739;53.324;6.862;2022-07-22T09:35:25;2.70;;;0.90;;
52866;SDS011;38739;53.324;6.862;2022-07-22T09:37:52;4.40;;;1.10;;
52866;SDS011;38739;53.324;6.862;2022-07-22T09:40:23;4.18;;;0.95;;
52866;SDS011;38739;53.324;6.862;2022-07-22T09:42:51;6.30;;;1.30;;
52866;SDS011;38739;53.324;6.862;2022-07-22T09:45:19;1.75;;;0.80;;
52866;SDS011;38739;53.324;6.862;2022-07-22T09:47:49;2.55;;;0.70;;
52866;SDS011;38739;53.324;6.862;2022-07-22T09:50:19;3.45;;;0.88;;
52866;SDS011;38739;53.324;6.862;2022-07-22T09:52:47;7.43;;;1.20;;
52866;SDS011;38739;53.324;6.862;2022-07-22T09:55:15;6.10;;;0.90;;
52866;SDS011;38739;53.324;6.862;2022-07-22T09:57:42;4.57;;;0.90;;
52866;SDS011;38739;53.324;6.862;2022-07-22T10:00:09;3.08;;;0.90;;
52866;SDS011;38739;53.324;6.862;2022-07-22T10:02:40;7.57;;;1.15;;
52866;SDS011;38739;53.324;6.862;2022-07-22T10:05:14;5.13;;;1.00;;
52866;SDS011;38739;53.324;6.862;2022-07-22T10:07:42;4.22;;;1.10;;
52866;SDS011;38739;53.324;6.862;2022-07-22T10:10:11;8.88;;;1.25;;
52866;SDS011;38739;53.324;6.862;2022-07-22T10:12:38;9.55;;;1.00;;
52866;SDS011;38739;53.324;6.862;2022-07-22T10:15:05;7.00;;;1.00;;
52866;SDS011;38739;53.324;6.862;2022-07-22T10:17:33;8.43;;;1.20;;
52866;SDS011;38739;53.324;6.862;2022-07-22T10:20:02;6.07;;;0.80;;
52866;SDS011;38739;53.324;6.862;2022-07-22T10:25:07;5.75;;;1.00;;
52866;SDS011;38739;53.324;6.862;2022-07-22T10:27:48;5.80;;;1.40;;
52866;SDS011;38739;53.324;6.862;2022-07-22T10:30:28;5.68;;;0.90;;
52866;SDS011;38739;53.324;6.862;2022-07-22T10:33:06;5.88;;;1.13;;
52866;SDS011;38739;53.324;6.862;2022-07-22T10:35:33;5.28;;;1.10;;
52866;SDS011;38739;53.324;6.862;2022-07-22T10:38:01;8.55;;;1.30;;
52866;SDS011;38739;53.324;6.862;2022-07-22T10:40:45;5.88;;;1.25;;
52866;SDS011;38739;53.324;6.862;2022-07-22T10:43:13;4.10;;;1.10;;
52866;SDS011;38739;53.324;6.862;2022-07-22T10:45:40;5.85;;;1.40;;
52866;SDS011;38739;53.324;6.862;2022-07-22T10:48:11;5.28;;;1.20;;
52866;SDS011;38739;53.324;6.862;2022-07-22T10:50:43;4.97;;;1.15;;
52866;SDS011;38739;53.324;6.862;2022-07-22T10:53:17;4.35;;;1.10;;
52866;SDS011;38739;53.324;6.862;2022-07-22T10:56:08;3.03;;;0.82;;
52866;SDS011;38739;53.324;6.862;2022-07-22T10:58:44;2.90;;;0.90;;
52866;SDS011;38739;53.324;6.862;2022-07-22T11:01:13;3.20;;;0.73;;
52866;SDS011;38739;53.324;6.862;2022-07-22T11:03:41;5.70;;;0.98;;
52866;SDS011;38739;53.324;6.862;2022-07-22T11:06:19;4.43;;;0.80;;
52866;SDS011;38739;53.324;6.862;2022-07-22T11:08:51;5.80;;;1.30;;
52866;SDS011;38739;53.324;6.862;2022-07-22T11:11:32;2.22;;;0.70;;
52866;SDS011;38739;53.324;6.862;2022-07-22T11:14:22;3.55;;;0.80;;
52866;SDS011;38739;53.324;6.862;2022-07-22T11:16:52;4.03;;;0.73;;
52866;SDS011;38739;53.324;6.862;2022-07-22T11:19:21;2.45;;;0.70;;
52866;SDS011;38739;53.324;6.862;2022-07-22T11:21:49;2.30;;;0.60;;
52866;SDS011;38739;53.324;6.862;2022-07-22T11:24:17;3.45;;;0.80;;
52866;SDS011;38739;53.324;6.862;2022-07-22T11:26:45;5.55;;;1.00;;
52866;SDS011;38739;53.324;6.862;2022-07-22T11:29:30;2.55;;;0.90;;
52866;SDS011;38739;53.324;6.862;2022-07-22T11:32:02;2.20;;;0.77;;
52866;SDS011;38739;53.324;6.862;2022-07-22T11:34:30;3.28;;;1.05;;
52866;SDS011;38739;53.324;6.862;2022-07-22T11:36:56;1.98;;;0.82;;
52866;SDS011;38739;53.324;6.862;2022-07-22T11:39:26;3.42;;;1.00;;
52866;SDS011;38739;53.324;6.862;2022-07-22T11:41:55;4.97;;;0.77;;
52866;SDS011;38739;53.324;6.862;2022-07-22T11:44:22;8.25;;;1.42;;
52866;SDS011;38739;53.324;6.862;2022-07-22T11:46:52;5.55;;;1.30;;
52866;SDS011;38739;53.324;6.862;2022-07-22T11:49:20;6.85;;;1.08;;
52866;SDS011;38739;53.324;6.862;2022-07-22T11:51:47;6.70;;;1.00;;
52866;SDS011;38739;53.324;6.862;2022-07-22T11:54:13;4.70;;;0.90;;
52866;SDS011;38739;53.324;6.862;2022-07-22T11:56:40;8.27;;;1.30;;
52866;SDS011;38739;53.324;6.862;2022-07-22T11:59:06;7.93;;;1.10;;
52866;SDS011;38739;53.324;6.862;2022-07-22T12:01:35;4.25;;;0.90;;
52866;SDS011;38739;53.324;6.862;2022-07-22T12:04:06;8.00;;;1.30;;
52866;SDS011;38739;53.324;6.862;2022-07-22T12:06:34;4.78;;;0.90;;
52866;SDS011;38739;53.324;6.862;2022-07-22T12:11:33;6.85;;;0.80;;
52866;SDS011;38739;53.324;6.862;2022-07-22T12:14:10;6.72;;;1.27;;
52866;SDS011;38739;53.324;6.862;2022-07-22T12:16:41;4.05;;;0.73;;
52866;SDS011;38739;53.324;6.862;2022-07-22T12:19:09;5.32;;;0.80;;
52866;SDS011;38739;53.324;6.862;2022-07-22T12:21:37;2.50;;;0.80;;
52866;SDS011;38739;53.324;6.862;2022-07-22T12:27:21;5.97;;;0.90;;
52866;SDS011;38739;53.324;6.862;2022-07-22T12:29:48;6.15;;;1.00;;
52866;SDS011;38739;53.324;6.862;2022-07-22T12:32:15;3.97;;;0.80;;
52866;SDS011;38739;53.324;6.862;2022-07-22T12:37:33;2.50;;;0.60;;
52866;SDS011;38739;53.324;6.862;2022-07-22T12:40:07;2.80;;;0.70;;
52866;SDS011;38739;53.324;6.862;2022-07-22T12:42:35;4.10;;;0.50;;
52866;SDS011;38739;53.324;6.862;2022-07-22T12:55:35;1.95;;;0.50;;
52866;SDS011;38739;53.324;6.862;2022-07-22T12:58:05;3.60;;;0.70;;
52866;SDS011;38739;53.324;6.862;2022-07-22T13:00:33;3.78;;;0.80;;
52866;SDS011;38739;53.324;6.862;2022-07-22T13:03:01;1.27;;;0.50;;
52866;SDS011;38739;53.324;6.862;2022-07-22T13:05:28;3.45;;;0.80;;
52866;SDS011;38739;53.324;6.862;2022-07-22T13:07:54;6.40;;;0.68;;
52866;SDS011;38739;53.324;6.862;2022-07-22T13:10:24;3.53;;;0.93;;
52866;SDS011;38739;53.324;6.862;2022-07-22T13:12:50;2.95;;;0.57;;
52866;SDS011;38739;53.324;6.862;2022-07-22T13:15:17;1.20;;;0.40;;
52866;SDS011;38739;53.324;6.862;2022-07-22T13:17:44;2.30;;;0.60;;
52866;SDS011;38739;53.324;6.862;2022-07-22T13:20:11;2.00;;;0.70;;
52866;SDS011;38739;53.324;6.862;2022-07-22T13:22:47;2.47;;;0.60;;
52866;SDS011;38739;53.324;6.862;2022-07-22T13:25:13;2.20;;;0.60;;
52866;SDS011;38739;53.324;6.862;2022-07-22T13:27:39;2.45;;;0.70;;
52866;SDS011;38739;53.324;6.862;2022-07-22T13:30:06;2.72;;;0.63;;
52866;SDS011;38739;53.324;6.862;2022-07-22T13:32:32;3.53;;;0.70;;
52866;SDS011;38739;53.324;6.862;2022-07-22T13:34:58;4.40;;;0.57;;
52866;SDS011;38739;53.324;6.862;2022-07-22T13:37:24;1.77;;;0.60;;
52866;SDS011;38739;53.324;6.862;2022-07-22T13:39:50;2.05;;;0.60;;
52866;SDS011;38739;53.324;6.862;2022-07-22T13:42:16;3.72;;;0.60;;
52866;SDS011;38739;53.324;6.862;2022-07-22T13:44:46;3.85;;;0.65;;
52866;SDS011;38739;53.324;6.862;2022-07-22T13:47:13;2.25;;;0.82;;
52866;SDS011;38739;53.324;6.862;2022-07-22T13:49:39;2.15;;;0.60;;
52866;SDS011;38739;53.324;6.862;2022-07-22T13:52:05;3.47;;;0.63;;
52866;SDS011;38739;53.324;6.862;2022-07-22T13:54:32;2.90;;;0.90;;
52866;SDS011;38739;53.324;6.862;2022-07-22T13:56:59;3.13;;;0.60;;
52866;SDS011;38739;53.324;6.862;2022-07-22T13:59:25;1.92;;;0.90;;
52866;SDS011;38739;53.324;6.862;2022-07-22T14:01:52;3.83;;;0.85;;
52866;SDS011;38739;53.324;6.862;2022-07-22T14:04:18;1.98;;;0.40;;
52866;SDS011;38739;53.324;6.862;2022-07-22T14:06:45;1.83;;;0.60;;
52866;SDS011;38739;53.324;6.862;2022-07-22T14:09:10;2.72;;;0.70;;
52866;SDS011;38739;53.324;6.862;2022-07-22T14:11:36;3.75;;;0.77;;
52866;SDS011;38739;53.324;6.862;2022-07-22T14:14:02;2.58;;;0.50;;
52866;SDS011;38739;53.324;6.862;2022-07-22T14:16:28;3.40;;;0.80;;
52866;SDS011;38739;53.324;6.862;2022-07-22T14:19:04;5.03;;;1.25;;
52866;SDS011;38739;53.324;6.862;2022-07-22T14:21:31;1.73;;;0.60;;
52866;SDS011;38739;53.324;6.862;2022-07-22T14:23:57;3.67;;;0.80;;
52866;SDS011;38739;53.324;6.862;2022-07-22T14:26:23;4.80;;;0.77;;
52866;SDS011;38739;53.324;6.862;2022-07-22T14:28:49;3.50;;;0.80;;
52866;SDS011;38739;53.324;6.862;2022-07-22T14:31:15;3.38;;;0.63;;
52866;SDS011;38739;53.324;6.862;2022-07-22T14:33:42;3.58;;;0.60;;
52866;SDS011;38739;53.324;6.862;2022-07-22T14:36:08;3.00;;;0.60;;
52866;SDS011;38739;53.324;6.862;2022-07-22T14:38:34;3.13;;;0.75;;
52866;SDS011;38739;53.324;6.862;2022-07-22T14:41:00;2.83;;;0.60;;
52866;SDS011;38739;53.324;6.862;2022-07-22T14:43:25;5.55;;;0.70;;
52866;SDS011;38739;53.324;6.862;2022-07-22T14:45:51;3.10;;;0.65;;
52866;SDS011;38739;53.324;6.862;2022-07-22T14:48:17;3.22;;;1.00;;
52866;SDS011;38739;53.324;6.862;2022-07-22T14:50:43;2.40;;;0.77;;
52866;SDS011;38739;53.324;6.862;2022-07-22T14:53:09;3.83;;;0.90;;
52866;SDS011;38739;53.324;6.862;2022-07-22T14:55:34;3.65;;;0.80;;
52866;SDS011;38739;53.324;6.862;2022-07-22T14:58:00;2.88;;;1.08;;
52866;SDS011;38739;53.324;6.862;2022-07-22T15:00:26;5.75;;;0.90;;
52866;SDS011;38739;53.324;6.862;2022-07-22T15:02:51;3.55;;;0.70;;
52866;SDS011;38739;53.324;6.862;2022-07-22T15:05:17;4.25;;;0.75;;
52866;SDS011;38739;53.324;6.862;2022-07-22T15:07:43;3.33;;;0.68;;
52866;SDS011;38739;53.324;6.862;2022-07-22T15:10:09;2.50;;;0.60;;
52866;SDS011;38739;53.324;6.862;2022-07-22T15:12:35;3.17;;;0.80;;
52866;SDS011;38739;53.324;6.862;2022-07-22T15:15:01;2.45;;;0.68;;
52866;SDS011;38739;53.324;6.862;2022-07-22T15:17:27;2.70;;;0.68;;